Time;durP1;ratioP1;P1;durP2;ratioP2;P2;SDS_P1;SDS_P2;PMS_P1;PMS_P2;Temp;Humidity;BMP_temperature;BMP_pressure;BME280_temperature;BME280_humidity;BME280_pressure;Samples;Min_cycle;Max_cycle;Signal;HPM_P1;HPM_P2
2021/10/28 00:12:20;;;;;;;9.43;7.55;;;;;;;3.34;100.00;96375.53;5101997;28;24791;-73
2021/10/28 00:14:53;;;;;;;8.02;6.45;;;;;;;3.37;100.00;96364.34;5118646;28;24449;-73
2021/10/28 00:17:26;;;;;;;7.82;7.03;;;;;;;3.34;100.00;96367.84;5127818;28;24926;-73
2021/10/28 00:19:54;;;;;;;6.97;6.30;;;;;;;3.25;100.00;96372.34;5127674;28;25001;-73
2021/10/28 00:22:23;;;;;;;8.32;6.50;;;;;;;3.28;100.00;96360.31;5127611;27;24425;-73
2021/10/28 00:24:49;;;;;;;8.18;7.38;;;;;;;3.25;100.00;96359.53;5127069;28;24417;-73
2021/10/28 00:27:17;;;;;;;10.07;7.93;;;;;;;3.15;100.00;96356.34;5113479;27;24461;-73
2021/10/28 00:29:43;;;;;;;9.18;7.57;;;;;;;3.13;100.00;96358.13;5113890;28;24421;-73
2021/10/28 00:32:09;;;;;;;10.50;7.68;;;;;;;3.15;100.00;96352.09;5113830;28;24422;-73
2021/10/28 00:34:36;;;;;;;10.55;8.00;;;;;;;2.98;100.00;96346.53;5113280;28;24997;-73
2021/10/28 00:37:04;;;;;;;11.10;7.53;;;;;;;2.86;100.00;96341.72;5114051;28;24428;-73
2021/10/28 00:39:31;;;;;;;9.30;8.25;;;;;;;2.95;100.00;96340.66;5113355;28;24418;-73
2021/10/28 00:41:57;;;;;;;13.85;9.15;;;;;;;2.99;100.00;96342.25;5113608;28;24417;-73
2021/10/28 00:44:24;;;;;;;10.57;8.93;;;;;;;2.79;100.00;96347.84;5113346;28;24985;-73
2021/10/28 00:46:50;;;;;;;10.27;8.73;;;;;;;2.75;100.00;96348.81;5113386;28;24421;-73
2021/10/28 00:49:17;;;;;;;12.75;8.73;;;;;;;2.83;100.00;96347.75;5113523;28;24418;-73
2021/10/28 00:51:44;;;;;;;11.32;9.02;;;;;;;3.04;100.00;96342.97;5113360;28;24827;-72
2021/10/28 00:54:17;;;;;;;10.43;8.85;;;;;;;3.13;100.00;96346.16;5112972;28;24453;-73
2021/10/28 00:56:45;;;;;;;12.65;9.48;;;;;;;2.91;100.00;96345.84;5113307;28;24417;-72
2021/10/28 00:59:12;;;;;;;13.95;9.75;;;;;;;2.72;100.00;96338.63;5113625;28;24422;-72
2021/10/28 01:01:39;;;;;;;13.38;9.85;;;;;;;2.63;100.00;96344.78;5113166;28;24966;-73
2021/10/28 01:04:06;;;;;;;13.77;10.57;;;;;;;2.58;100.00;96342.34;5113142;28;24449;-73
2021/10/28 01:06:34;;;;;;;12.43;10.75;;;;;;;2.58;100.00;96337.22;5112779;28;24664;-73
2021/10/28 01:09:03;;;;;;;13.80;10.40;;;;;;;2.69;100.00;96336.16;5113128;28;24417;-73
2021/10/28 01:11:31;;;;;;;15.13;10.95;;;;;;;2.69;100.00;96328.47;5113047;28;24424;-73
2021/10/28 01:13:58;;;;;;;21.25;11.13;;;;;;;2.63;100.00;96337.97;5112797;28;24521;-72
2021/10/28 01:16:25;;;;;;;14.13;9.98;;;;;;;2.67;100.00;96331.91;5112660;28;24410;-73
2021/10/28 01:18:52;;;;;;;10.88;9.77;;;;;;;2.78;100.00;96343.59;5112935;28;24995;-73
2021/10/28 01:21:21;;;;;;;12.55;8.95;;;;;;;2.79;100.00;96338.47;5112720;28;24413;-73
2021/10/28 01:23:48;;;;;;;8.07;7.28;;;;;;;2.86;100.00;96332.31;5112769;28;24501;-72
2021/10/28 01:26:17;;;;;;;9.05;6.78;;;;;;;2.99;100.00;96330.31;5112499;28;24466;-73
2021/10/28 01:28:52;;;;;;;12.80;7.17;;;;;;;2.93;100.00;96333.03;5112712;28;24417;-73
2021/10/28 01:31:20;;;;;;;10.43;6.10;;;;;;;2.86;100.00;96326.38;5112541;28;24418;-73
2021/10/28 01:33:47;;;;;;;8.48;6.50;;;;;;;2.86;100.00;96331.50;5112312;28;24529;-73
2021/10/28 01:36:13;;;;;;;8.70;6.40;;;;;;;3.01;100.00;96326.00;5112405;28;24441;-73
2021/10/28 01:38:42;;;;;;;6.65;5.28;;;;;;;2.97;100.00;96321.00;5111598;28;24655;-73
2021/10/28 01:41:10;;;;;;;6.25;5.60;;;;;;;2.93;100.00;96322.78;5112395;28;24510;-73
2021/10/28 01:43:36;;;;;;;5.55;4.82;;;;;;;3.05;100.00;96321.66;5112331;28;24528;-73
2021/10/28 01:46:05;;;;;;;6.18;4.47;;;;;;;3.12;100.00;96324.03;5111973;28;24418;-73
2021/10/28 01:48:32;;;;;;;6.00;3.58;;;;;;;3.18;100.00;96323.00;5112514;28;24920;-73
2021/10/28 01:50:59;;;;;;;7.60;2.97;;;;;;;3.14;100.00;96324.81;5112060;28;25049;-73
2021/10/28 01:53:25;;;;;;;25.17;3.03;;;;;;;3.12;100.00;96325.75;5111943;28;24980;-73
2021/10/28 01:55:53;;;;;;;4.33;2.83;;;;;;;3.18;100.00;96323.00;5111843;28;24495;-74
2021/10/28 01:58:23;;;;;;;17.85;2.90;;;;;;;3.07;100.00;96315.59;5112073;28;24417;-73
2021/10/28 02:00:50;;;;;;;14.73;2.72;;;;;;;3.12;100.00;96321.47;5111874;28;24977;-73
2021/10/28 02:03:17;;;;;;;33.13;3.15;;;;;;;3.15;100.00;96320.53;5112101;28;24422;-73
2021/10/28 02:05:43;;;;;;;14.18;3.00;;;;;;;3.27;100.00;96327.91;5111796;28;24421;-73
2021/10/28 02:08:10;;;;;;;4.00;2.58;;;;;;;3.27;100.00;96320.25;5112117;28;24421;-73
2021/10/28 02:10:38;;;;;;;43.00;3.28;;;;;;;3.24;100.00;96319.47;5109653;28;24482;-72
2021/10/28 02:13:06;;;;;;;49.95;3.90;;;;;;;3.22;100.00;96316.09;5109048;28;24448;-73
2021/10/28 02:15:33;;;;;;;5.60;2.55;;;;;;;3.22;100.00;96310.97;5111153;28;25024;-73
2021/10/28 02:17:59;;;;;;;3.08;2.78;;;;;;;3.25;100.00;96321.97;5112025;28;24433;-73
2021/10/28 02:20:26;;;;;;;6.82;3.00;;;;;;;3.29;100.00;96312.50;5111906;28;24417;-73
2021/10/28 02:22:52;;;;;;;7.03;2.90;;;;;;;3.29;100.00;96315.06;5111559;28;24418;-73
2021/10/28 02:25:19;;;;;;;4.50;3.40;;;;;;;3.37;100.00;96308.03;5111488;28;24428;-73
2021/10/28 02:27:46;;;;;;;3.15;2.85;;;;;;;3.39;100.00;96309.69;5111454;28;24436;-73
2021/10/28 02:30:14;;;;;;;4.15;3.40;;;;;;;3.40;100.00;96306.22;5111059;28;24470;-73
2021/10/28 02:32:41;;;;;;;20.00;3.88;;;;;;;3.42;100.00;96302.81;5111514;28;24438;-73
2021/10/28 02:35:09;;;;;;;4.50;3.73;;;;;;;3.39;100.00;96302.00;5111501;28;24437;-73
2021/10/28 02:37:36;;;;;;;24.60;4.13;;;;;;;3.28;100.00;96314.22;5111429;28;24422;-73
2021/10/28 02:40:03;;;;;;;16.90;5.13;;;;;;;3.00;100.00;96313.22;5111811;28;24418;-73
2021/10/28 02:42:29;;;;;;;6.40;4.80;;;;;;;2.98;100.00;96305.59;5111024;28;24953;-74
2021/10/28 02:44:55;;;;;;;23.42;5.18;;;;;;;2.72;100.00;96302.81;5111097;28;24516;-72
2021/10/28 02:47:24;;;;;;;23.20;4.82;;;;;;;2.71;100.00;96302.00;5111274;28;24490;-73
2021/10/28 02:49:50;;;;;;;15.50;4.35;;;;;;;2.65;100.00;96302.97;5111307;28;24436;-73
2021/10/28 02:52:17;;;;;;;46.33;4.53;;;;;;;2.72;100.00;96301.09;5110996;28;24425;-73
2021/10/28 02:54:43;;;;;;;29.92;3.75;;;;;;;2.75;100.00;96295.94;5110588;28;24959;-73
2021/10/28 02:57:10;;;;;;;58.67;5.07;;;;;;;2.82;100.00;96297.47;5110891;28;24425;-73
2021/10/28 02:59:36;;;;;;;54.10;4.53;;;;;;;2.85;100.00;96302.47;5111317;28;24425;-73
2021/10/28 03:02:04;;;;;;;6.20;3.47;;;;;;;2.89;100.00;96299.00;5111109;28;24421;-74
2021/10/28 03:04:31;;;;;;;7.05;4.32;;;;;;;2.94;100.00;96296.31;5110659;28;24528;-73
2021/10/28 03:06:58;;;;;;;30.93;4.83;;;;;;;2.98;100.00;96302.19;5110925;28;24473;-73
2021/10/28 03:09:27;;;;;;;49.50;4.53;;;;;;;2.84;100.00;96297.41;5107903;28;24505;-73
2021/10/28 03:11:56;;;;;;;6.43;4.13;;;;;;;2.92;100.00;96287.81;5105956;28;24825;-73
2021/10/28 03:14:28;;;;;;;13.67;4.00;;;;;;;2.97;100.00;96292.84;5110769;28;25054;-73
2021/10/28 03:16:58;;;;;;;6.32;4.22;;;;;;;3.03;100.00;96290.97;5110931;28;24444;-73
2021/10/28 03:19:32;;;;;;;8.88;4.35;;;;;;;3.14;100.00;96283.84;5110926;28;24525;-73
2021/10/28 03:27:29;;;;;;;4.95;4.43;;;;;;;3.21;100.00;96288.84;5110758;28;24437;-74
2021/10/28 03:29:56;;;;;;;7.00;4.70;;;;;;;3.18;100.00;96288.91;5110733;28;24410;-73
2021/10/28 03:32:23;;;;;;;5.97;5.13;;;;;;;3.29;100.00;96287.75;5110457;28;25075;-73
2021/10/28 03:34:51;;;;;;;11.50;6.57;;;;;;;3.19;100.00;96283.75;5110466;28;24425;-73
2021/10/28 03:37:22;;;;;;;7.15;6.45;;;;;;;3.29;100.00;96290.31;5110614;28;24953;-73
2021/10/28 03:40:10;;;;;;;11.38;6.60;;;;;;;3.26;100.00;96282.69;5110806;28;24430;-74
2021/10/28 03:43:09;;;;;;;15.48;6.72;;;;;;;3.21;100.00;96283.72;5110564;28;24475;-73
2021/10/28 03:46:03;;;;;;;13.73;6.65;;;;;;;3.15;100.00;96284.69;5110335;28;25052;-73
2021/10/28 03:48:53;;;;;;;13.88;6.00;;;;;;;2.96;100.00;96294.53;5110549;28;24457;-72
2021/10/28 04:00:19;;;;;;;27.20;8.73;;;;;;;2.89;100.00;96288.75;5110739;28;24413;-73
2021/10/28 04:08:36;;;;;;;40.72;9.95;;;;;;;2.82;100.00;96278.72;5114386;28;24540;-73
2021/10/28 04:16:51;;;;;;;32.28;10.77;;;;;;;2.89;100.00;96273.41;5100051;28;25002;-73
2021/10/28 04:19:30;;;;;;;22.40;11.25;;;;;;;2.90;100.00;96269.13;5102640;28;24434;-73
2021/10/28 04:30:26;;;;;;;33.80;12.73;;;;;;;3.00;100.00;96283.34;5095786;28;24474;-72
2021/10/28 04:32:53;;;;;;;24.05;13.95;;;;;;;3.00;100.00;96277.41;5093208;28;24890;-71
2021/10/28 04:35:20;;;;;;;19.63;14.15;;;;;;;3.08;100.00;96275.53;5093240;28;24488;-72
2021/10/28 04:37:47;;;;;;;23.02;15.80;;;;;;;3.20;100.00;96271.81;5093521;28;24417;-72
2021/10/28 04:40:15;;;;;;;24.02;16.00;;;;;;;3.24;100.00;96270.84;5093406;28;24429;-73
2021/10/28 04:42:43;;;;;;;16.40;14.60;;;;;;;3.37;100.00;96267.06;5093216;28;24429;-73
2021/10/28 04:45:10;;;;;;;16.13;14.57;;;;;;;3.43;100.00;96266.06;5092860;28;24476;-74
2021/10/28 04:47:36;;;;;;;28.17;14.88;;;;;;;3.45;100.00;96261.72;5092992;28;24512;-73
2021/10/28 04:50:03;;;;;;;20.98;13.80;;;;;;;3.44;100.00;96260.06;5093331;28;24422;-73
2021/10/28 04:52:30;;;;;;;21.58;14.55;;;;;;;3.45;100.00;96265.16;5093503;28;24487;-74
2021/10/28 04:54:56;;;;;;;16.58;14.82;;;;;;;3.48;100.00;96252.25;5105694;28;24461;-74
2021/10/28 04:57:22;;;;;;;18.58;15.85;;;;;;;3.57;100.00;96254.56;5113135;28;24430;-74
2021/10/28 04:59:50;;;;;;;18.65;14.60;;;;;;;3.71;100.00;96246.50;5113208;28;24481;-74
2021/10/28 05:02:17;;;;;;;16.08;14.57;;;;;;;3.82;100.00;96246.19;5113074;28;24420;-74
2021/10/28 05:04:43;;;;;;;17.50;15.20;;;;;;;3.92;100.00;96245.03;5112914;28;24525;-74
2021/10/28 05:07:10;;;;;;;17.50;15.70;;;;;;;3.95;100.00;96250.09;5113212;28;24417;-74
2021/10/28 05:09:40;;;;;;;17.13;15.32;;;;;;;3.99;100.00;96240.59;5113079;28;24898;-74
2021/10/28 05:12:07;;;;;;;17.40;15.70;;;;;;;4.02;100.00;96241.34;5112792;28;24775;-73
2021/10/28 05:14:33;;;;;;;19.35;16.67;;;;;;;4.02;100.00;96235.38;5112432;28;24425;-73
2021/10/28 05:17:01;;;;;;;18.50;15.97;;;;;;;4.05;100.00;96236.13;5112804;28;24449;-74
2021/10/28 05:19:29;;;;;;;18.35;16.45;;;;;;;4.08;100.00;96236.03;5113012;28;24534;-73
2021/10/28 05:21:55;;;;;;;17.95;15.88;;;;;;;4.15;100.00;96239.22;5112728;28;24420;-74
2021/10/28 05:24:22;;;;;;;17.83;16.08;;;;;;;4.28;100.00;96237.97;5093234;28;24430;-72
2021/10/28 05:26:48;;;;;;;19.98;17.90;;;;;;;4.35;100.00;96234.34;5092336;28;24772;-73
2021/10/28 05:29:15;;;;;;;19.10;17.30;;;;;;;4.32;100.00;96241.28;5106007;22;24863;-77
2021/10/28 05:31:41;;;;;;;20.17;18.25;;;;;;;4.36;100.00;96228.31;5052345;28;24427;-77
2021/10/28 05:34:09;;;;;;;21.65;17.10;;;;;;;4.43;100.00;96228.97;5052058;28;24437;-76
2021/10/28 05:36:35;;;;;;;21.48;18.05;;;;;;;4.48;100.00;96223.69;5052012;28;24473;-76
2021/10/28 05:39:02;;;;;;;20.03;18.00;;;;;;;4.54;100.00;96220.94;5052268;28;24423;-77
2021/10/28 05:41:29;;;;;;;19.90;17.80;;;;;;;4.56;100.00;96222.59;5052375;28;24477;-75
2021/10/28 05:43:56;;;;;;;20.80;18.65;;;;;;;4.49;100.00;96221.09;5051856;28;24963;-76
2021/10/28 05:46:23;;;;;;;19.48;17.55;;;;;;;4.54;100.00;96226.91;5051804;28;24474;-75
2021/10/28 05:48:49;;;;;;;20.10;18.08;;;;;;;4.60;100.00;96231.03;5051906;28;24443;-75
2021/10/28 05:51:17;;;;;;;21.50;18.33;;;;;;;4.68;100.00;96228.22;5051728;28;24430;-75
2021/10/28 05:53:44;;;;;;;21.27;19.05;;;;;;;4.73;100.00;96242.56;5065374;28;24435;-75
2021/10/28 05:56:11;;;;;;;22.45;19.92;;;;;;;4.69;100.00;96235.84;5071618;28;24473;-76
2021/10/28 05:58:38;;;;;;;20.95;18.60;;;;;;;4.77;100.00;96233.88;5071507;28;25056;-75
2021/10/28 06:01:04;;;;;;;23.40;19.98;;;;;;;4.80;100.00;96243.22;5071496;28;25022;-75
2021/10/28 06:03:32;;;;;;;21.65;19.35;;;;;;;4.86;100.00;96245.59;5071636;28;24470;-76
2021/10/28 06:05:59;;;;;;;25.17;20.38;;;;;;;4.91;100.00;96230.03;5071062;28;24438;-75
2021/10/28 06:08:26;;;;;;;22.45;20.02;;;;;;;4.93;100.00;96241.06;5071259;28;24431;-76
2021/10/28 06:10:53;;;;;;;25.92;21.27;;;;;;;4.89;100.00;96234.34;5070938;28;24430;-75
2021/10/28 06:13:20;;;;;;;23.08;20.65;;;;;;;4.92;100.00;96234.25;5071118;28;24438;-76
2021/10/28 06:15:47;;;;;;;24.42;21.90;;;;;;;4.95;100.00;96234.16;5056808;28;24802;-74
2021/10/28 06:18:35;;;;;;;29.25;23.42;;;;;;;4.94;100.00;96240.19;5051003;28;24530;-75
2021/10/28 06:21:02;;;;;;;24.98;22.38;;;;;;;4.95;100.00;96232.44;5051349;28;24442;-76
2021/10/28 06:23:30;;;;;;;26.08;23.02;;;;;;;4.96;100.00;96239.22;5051045;28;24439;-76
2021/10/28 06:25:56;;;;;;;27.25;22.25;;;;;;;5.02;100.00;96240.78;5051104;28;24446;-76
2021/10/28 06:28:23;;;;;;;25.02;22.33;;;;;;;5.03;100.00;96233.00;5050897;28;24439;-76
2021/10/28 06:30:49;;;;;;;30.42;24.75;;;;;;;5.05;100.00;96238.94;5050979;28;24427;-76
2021/10/28 06:33:20;;;;;;;26.55;23.38;;;;;;;5.02;100.00;96233.91;5050887;28;24419;-76
2021/10/28 06:35:46;;;;;;;33.07;24.40;;;;;;;5.03;100.00;96227.88;5050134;28;24545;-76
2021/10/28 06:38:13;;;;;;;26.25;23.58;;;;;;;5.01;100.00;96232.25;5050617;28;24546;-76
2021/10/28 06:40:41;;;;;;;26.08;23.30;;;;;;;5.03;100.00;96234.75;5050843;28;24434;-74
2021/10/28 06:43:09;;;;;;;27.33;24.42;;;;;;;5.04;100.00;96233.84;5050727;28;24454;-76
2021/10/28 06:45:36;;;;;;;27.60;23.90;;;;;;;5.02;100.00;96235.63;5050311;28;24450;-77
2021/10/28 06:48:03;;;;;;;27.52;22.15;;;;;;;5.06;100.00;96237.22;5050542;28;24822;-75
2021/10/28 06:50:34;;;;;;;29.65;22.75;;;;;;;5.05;100.00;96235.53;5050585;28;24434;-76
2021/10/28 06:53:08;;;;;;;29.55;22.88;;;;;;;5.02;100.00;96244.16;5042541;28;24896;-77
2021/10/28 06:55:41;;;;;;;25.40;22.67;;;;;;;5.09;100.00;96237.13;5030160;28;25053;-78
2021/10/28 07:03:37;;;;;;;33.72;25.10;;;;;;;5.10;100.00;96236.22;5030653;28;24474;-77
2021/10/28 07:06:08;;;;;;;27.75;23.35;;;;;;;5.20;100.00;96237.59;5030474;28;24550;-76
2021/10/28 07:08:37;;;;;;;31.20;24.63;;;;;;;5.14;100.00;96231.81;5030447;28;24542;-75
2021/10/28 07:11:08;;;;;;;28.20;24.10;;;;;;;5.23;100.00;96239.22;5030409;28;24527;-75
2021/10/28 07:13:38;;;;;;;29.17;23.83;;;;;;;5.18;100.00;96241.09;5030770;28;24486;-75
2021/10/28 07:16:13;;;;;;;26.17;23.45;;;;;;;5.23;100.00;96240.06;5030316;28;24501;-75
2021/10/28 07:18:47;;;;;;;27.83;23.45;;;;;;;5.28;100.00;96238.16;5030408;28;24527;-75
2021/10/28 07:21:32;;;;;;;26.02;23.02;;;;;;;5.25;100.00;96238.25;5030659;28;24518;-76
2021/10/28 07:27:15;;;;;;;26.38;21.85;;;;;;;5.31;100.00;96235.50;5050281;28;24503;-75
2021/10/28 07:32:53;;;;;;;28.10;22.23;;;;;;;5.26;100.00;96246.78;5050652;28;24857;-75
2021/10/28 07:38:27;;;;;;;24.02;21.70;;;;;;;5.24;100.00;96246.03;5054335;28;25019;-75
2021/10/28 08:14:18;;;;;;;23.45;20.88;;;;;;;5.41;100.00;96241.13;5053622;28;24785;-76
2021/10/28 08:19:39;;;;;;;22.70;19.58;;;;;;;5.46;100.00;96230.72;5053317;28;24497;-74
2021/10/28 08:22:10;;;;;;;21.77;19.67;;;;;;;5.42;100.00;96232.56;5052984;28;24431;-74
2021/10/28 08:30:01;;;;;;;22.30;19.38;;;;;;;5.55;100.00;96223.50;5054429;28;24794;-77
2021/10/28 08:32:27;;;;;;;21.63;19.35;;;;;;;5.70;100.00;96222.09;5054114;28;24427;-77
2021/10/28 08:34:57;;;;;;;21.57;19.27;;;;;;;5.67;100.00;96218.81;5053222;28;24995;-77
2021/10/28 08:37:30;;;;;;;22.95;18.90;;;;;;;5.56;100.00;96225.19;5053889;28;24515;-77
2021/10/28 08:39:56;;;;;;;21.58;19.27;;;;;;;5.60;100.00;96218.22;5053601;28;24790;-77
2021/10/28 08:42:24;;;;;;;22.45;19.13;;;;;;;5.55;100.00;96220.94;5053228;28;24788;-77
2021/10/28 08:44:52;;;;;;;25.40;19.08;;;;;;;5.51;100.00;96221.09;5052855;28;24435;-77
2021/10/28 08:47:20;;;;;;;25.55;20.00;;;;;;;5.48;100.00;96216.06;5052772;28;24518;-78
2021/10/28 08:49:50;;;;;;;22.23;19.87;;;;;;;5.56;100.00;96214.91;5053457;28;24439;-78
2021/10/28 08:52:39;;;;;;;21.58;19.30;;;;;;;5.63;100.00;96210.38;5055310;28;24430;-78
2021/10/28 08:55:16;;;;;;;21.20;19.00;;;;;;;5.75;100.00;96201.41;5073268;28;24839;-77
2021/10/28 09:26:14;;;;;;;20.25;17.98;;;;;;;5.86;100.00;96204.41;5055336;28;24522;-77
2021/10/28 09:28:43;;;;;;;20.70;17.47;;;;;;;5.97;100.00;96214.28;5053196;28;24465;-77
2021/10/28 09:31:13;;;;;;;21.35;17.98;;;;;;;5.94;100.00;96207.56;5053750;28;24971;-78
2021/10/28 09:33:50;;;;;;;18.73;16.92;;;;;;;5.94;100.00;96212.69;5054231;28;24423;-77
2021/10/28 09:44:43;;;;;;;20.55;18.25;;;;;;;6.02;100.00;96208.09;5065482;28;24446;-79
2021/10/28 09:47:42;;;;;;;18.80;16.90;;;;;;;6.05;100.00;96204.59;5064499;28;24930;-80
2021/10/28 09:50:13;;;;;;;18.85;17.00;;;;;;;6.08;100.00;96204.44;5055125;28;24458;-79
2021/10/28 09:52:53;;;;;;;19.27;17.35;;;;;;;6.10;100.00;96210.38;5054658;28;24439;-79
2021/10/28 09:58:26;;;;;;;18.98;17.00;;;;;;;6.35;100.00;96207.72;5011666;28;25043;-80
2021/10/28 10:00:53;;;;;;;18.97;17.07;;;;;;;6.38;100.00;96209.31;5012540;28;24436;-79
2021/10/28 10:03:24;;;;;;;20.73;18.65;;;;;;;6.38;100.00;96212.75;5032449;28;24434;-79
2021/10/28 10:05:55;;;;;;;18.87;17.00;;;;;;;6.48;100.00;96205.47;5060304;28;24458;-80
2021/10/28 10:08:23;;;;;;;19.50;15.85;;;;;;;6.40;100.00;96203.22;5061492;28;24480;-80
2021/10/28 10:10:50;;;;;;;17.73;15.85;;;;;;;6.59;100.00;96211.03;5062045;28;24769;-80
2021/10/28 10:13:17;;;;;;;18.77;16.57;;;;;;;6.54;100.00;96203.50;5061050;28;24438;-80
2021/10/28 10:15:45;;;;;;;17.37;15.63;;;;;;;6.61;100.00;96200.69;5060903;28;24516;-80
2021/10/28 10:18:14;;;;;;;17.48;15.70;;;;;;;6.77;100.00;96194.00;5061299;28;24459;-80
2021/10/28 10:20:46;;;;;;;17.60;15.80;;;;;;;6.86;100.00;96198.81;5061274;28;24959;-79
2021/10/28 10:26:11;;;;;;;17.27;14.77;;;;;;;7.00;100.00;96211.91;5058797;28;21277;-80
2021/10/28 11:19:35;;;;;;;16.90;15.18;;;;;;;7.71;100.00;96154.75;5050078;28;20629;-79
2021/10/28 11:19:46;;;;;;;16.35;14.75;;;;;;;7.91;100.00;96146.94;5050223;28;20650;-78
2021/10/28 11:22:35;;;;;;;19.40;15.70;;;;;;;8.00;100.00;96138.78;5050600;28;20804;-77
2021/10/28 12:21:39;;;;;;;14.07;12.80;;;;;;;9.29;100.00;96088.53;5051451;28;24770;-74
2021/10/28 12:44:14;;;;;;;15.55;13.85;;;;;;;10.13;100.00;96067.59;5055141;28;24487;-74
2021/10/28 13:06:43;;;;;;;16.17;13.17;;;;;;;10.79;100.00;96033.59;5032417;28;24494;-73
2021/10/28 13:50:29;;;;;;;17.33;12.60;;;;;;;12.10;100.00;96000.41;5032765;28;24435;-73
2021/10/28 13:59:04;;;;;;;14.48;11.98;;;;;;;12.27;100.00;95994.94;4993325;28;25024;-74
2021/10/28 14:37:50;;;;;;;11.35;10.25;;;;;;;12.49;100.00;95970.13;5011345;28;24984;-73
2021/10/28 15:29:56;;;;;;;15.38;10.98;;;;;;;12.19;100.00;95958.25;5010435;28;24432;-73
2021/10/28 15:35:13;;;;;;;13.30;10.48;;;;;;;11.91;100.00;95955.81;5010242;28;25057;-72
2021/10/28 15:37:52;;;;;;;17.88;10.85;;;;;;;11.79;100.00;95955.66;5010237;28;24877;-73
2021/10/28 15:40:28;;;;;;;13.52;11.27;;;;;;;11.77;100.00;95951.47;5010669;28;24834;-72
2021/10/28 16:24:02;;;;;;;7.53;5.60;;;;;;;10.53;100.00;95941.91;5022370;28;24546;-72
2021/10/28 16:26:32;;;;;;;6.13;5.53;;;;;;;10.44;100.00;95937.25;5033163;28;24432;-72
2021/10/28 16:28:59;;;;;;;6.63;5.60;;;;;;;10.36;100.00;95934.28;5033303;28;24438;-72
2021/10/28 16:31:26;;;;;;;13.40;4.90;;;;;;;10.22;100.00;95940.25;5033247;28;24976;-72
2021/10/28 16:33:53;;;;;;;6.73;5.20;;;;;;;10.06;100.00;95945.47;5033201;28;24430;-72
2021/10/28 16:36:23;;;;;;;8.77;4.95;;;;;;;9.94;100.00;95941.03;5033154;28;24785;-73
2021/10/28 16:38:50;;;;;;;6.05;5.13;;;;;;;9.81;100.00;95943.47;5033298;28;24454;-72
2021/10/28 16:41:17;;;;;;;5.53;4.90;;;;;;;9.67;100.00;95943.41;5033138;28;24964;-72
2021/10/28 16:43:43;;;;;;;6.88;4.82;;;;;;;9.57;100.00;95952.63;5033245;28;24420;-72
2021/10/28 16:46:10;;;;;;;5.75;4.32;;;;;;;9.31;100.00;95948.91;5032698;28;24432;-72
2021/10/28 16:48:36;;;;;;;5.60;4.00;;;;;;;8.98;100.00;95954.97;5032783;28;24416;-72
2021/10/28 16:51:06;;;;;;;4.40;3.53;;;;;;;8.77;100.00;95944.00;5033156;28;24415;-72
2021/10/28 16:53:32;;;;;;;4.75;3.70;;;;;;;8.75;100.00;95952.75;5032932;28;24431;-72
2021/10/28 16:55:59;;;;;;;6.18;4.25;;;;;;;8.76;100.00;95947.53;5032731;28;24447;-72
2021/10/28 16:58:26;;;;;;;9.93;5.28;;;;;;;8.77;100.00;95940.59;5032550;28;24483;-72
2021/10/28 17:00:54;;;;;;;6.57;4.60;;;;;;;8.78;100.00;95945.66;5032704;28;24416;-72
2021/10/28 17:03:20;;;;;;;5.07;4.47;;;;;;;8.77;100.00;95944.00;5032798;28;24957;-72
2021/10/28 17:05:48;;;;;;;5.72;4.32;;;;;;;8.62;100.00;95953.41;5032880;28;20756;-72
2021/10/28 17:08:16;;;;;;;6.57;3.67;;;;;;;8.34;100.00;95945.38;5032456;28;24423;-72
2021/10/28 17:10:43;;;;;;;6.07;4.00;;;;;;;8.36;100.00;95954.72;5032661;28;20783;-72
2021/10/28 17:13:10;;;;;;;5.53;3.20;;;;;;;8.17;100.00;95965.13;5032580;28;24794;-72
2021/10/28 17:15:36;;;;;;;2.88;2.67;;;;;;;7.95;100.00;95960.19;5032151;28;24435;-72
2021/10/28 17:18:03;;;;;;;3.55;2.85;;;;;;;7.84;100.00;95965.06;5032718;28;24443;-72
2021/10/28 17:20:34;;;;;;;4.97;3.40;;;;;;;7.69;100.00;95970.97;5032476;28;24836;-72
2021/10/28 17:23:01;;;;;;;7.47;5.60;;;;;;;7.64;100.00;95967.75;5032733;28;20737;-73
2021/10/28 17:25:31;;;;;;;6.70;6.10;;;;;;;7.74;100.00;95962.06;5028775;28;24804;-72
2021/10/28 17:27:58;;;;;;;7.63;6.53;;;;;;;7.80;100.00;95966.13;5032093;28;21154;-72
2021/10/28 17:34:11;;;;;;;8.88;5.80;;;;;;;7.83;100.00;95960.81;4994059;28;20768;-80
2021/10/28 17:39:53;;;;;;;7.65;6.43;;;;;;;7.89;100.00;95960.50;5055153;23;21281;-80
2021/10/28 17:45:51;;;;;;;5.37;4.40;;;;;;;7.54;100.00;95963.97;5001636;28;20856;-81
2021/10/28 17:48:38;;;;;;;8.23;7.43;;;;;;;7.47;100.00;95959.09;5018114;28;20709;-81
2021/10/28 17:51:31;;;;;;;10.30;7.80;;;;;;;7.51;100.00;95954.63;4998377;28;20719;-80
2021/10/28 17:57:55;;;;;;;10.43;5.25;;;;;;;7.26;100.00;95963.50;4994424;28;21205;-80
2021/10/28 18:00:23;;;;;;;5.97;4.67;;;;;;;7.27;100.00;95954.06;4988641;28;20864;-81
2021/10/28 18:02:54;;;;;;;6.32;4.88;;;;;;;7.15;100.00;95964.91;4999376;28;20821;-81
2021/10/28 18:05:28;;;;;;;5.63;5.13;;;;;;;7.07;100.00;95960.09;4989327;28;20688;-81
2021/10/28 18:08:10;;;;;;;10.45;6.40;;;;;;;7.05;100.00;95955.97;4989277;28;20764;-81
2021/10/28 18:14:11;;;;;;;8.00;7.07;;;;;;;7.08;100.00;95955.78;4967739;28;20863;-81
2021/10/28 18:16:47;;;;;;;7.95;7.07;;;;;;;7.13;100.00;95959.84;4987769;28;20677;-81
2021/10/28 18:19:44;;;;;;;10.80;8.13;;;;;;;7.11;100.00;95945.34;4983166;28;21056;-80
2021/10/28 18:25:41;;;;;;;10.52;9.30;;;;;;;7.20;100.00;95947.53;4977921;28;20698;-81
2021/10/28 18:28:17;;;;;;;10.80;9.27;;;;;;;7.15;100.00;95942.56;4977129;28;20766;-81
2021/10/28 18:31:41;;;;;;;9.05;7.22;;;;;;;6.85;100.00;95954.25;4976856;28;24452;-80
2021/10/28 18:34:09;;;;;;;8.73;5.35;;;;;;;6.60;100.00;95951.94;4976578;28;20770;-80
2021/10/28 18:36:58;;;;;;;11.95;6.50;;;;;;;6.34;100.00;95948.81;4977819;28;20805;-81
2021/10/28 18:39:24;;;;;;;21.50;8.55;;;;;;;6.29;100.00;95945.56;5010411;28;21120;-80
2021/10/28 18:42:22;;;;;;;23.05;7.68;;;;;;;6.21;100.00;95945.06;5013804;28;21123;-81
2021/10/28 18:51:38;;;;;;;10.80;8.93;;;;;;;6.23;100.00;95933.81;4918649;28;24442;-80
2021/10/28 18:54:07;;;;;;;13.93;10.73;;;;;;;6.34;100.00;95929.94;4993127;28;25017;-80
2021/10/28 18:57:02;;;;;;;11.70;10.02;;;;;;;6.39;100.00;95928.84;4993823;28;21100;-81
2021/10/28 18:59:37;;;;;;;14.40;9.00;;;;;;;6.44;100.00;95926.06;4988426;28;21418;-81
2021/10/28 19:02:06;;;;;;;13.13;9.63;;;;;;;6.42;100.00;95926.13;4993290;28;20799;-80
2021/10/28 19:07:57;;;;;;;25.83;13.70;;;;;;;6.49;100.00;95916.41;4970966;28;20940;-80
2021/10/28 19:10:31;;;;;;;26.48;14.23;;;;;;;6.52;100.00;95919.66;4972192;28;20802;-80
2021/10/28 19:13:11;;;;;;;22.97;13.73;;;;;;;6.43;100.00;95919.25;4970720;28;21290;-80
2021/10/28 19:15:49;;;;;;;23.98;15.23;;;;;;;6.36;100.00;95913.53;4970558;28;21122;-80
2021/10/28 19:18:25;;;;;;;27.90;14.38;;;;;;;6.27;100.00;95914.78;4974279;28;20788;-80
2021/10/28 19:20:56;;;;;;;33.58;15.48;;;;;;;6.22;100.00;95908.16;4992825;28;24444;-80
2021/10/28 19:23:31;;;;;;;32.93;16.07;;;;;;;6.14;100.00;95910.22;4992096;28;24441;-80
2021/10/28 19:28:50;;;;;;;36.53;15.10;;;;;;;6.01;100.00;95904.78;4976951;28;20763;-80
2021/10/28 19:32:13;;;;;;;22.45;14.40;;;;;;;6.02;100.00;95906.44;4994975;28;24433;-80
2021/10/28 19:34:41;;;;;;;28.45;12.48;;;;;;;5.89;100.00;95910.41;4996133;28;24444;-80
2021/10/28 19:37:12;;;;;;;22.02;12.20;;;;;;;5.74;100.00;95901.59;4996348;28;24439;-80
2021/10/28 19:55:42;;;;;;;20.05;10.93;;;;;;;5.22;100.00;95906.28;4961995;28;24576;-78
2021/10/28 20:14:24;;;;;;;10.57;9.10;;;;;;;4.42;100.00;95893.09;5017210;28;24467;-78
2021/10/28 20:22:21;;;;;;;9.32;8.38;;;;;;;4.22;100.00;95891.22;5037292;28;24877;-80
2021/10/28 20:24:49;;;;;;;10.73;8.35;;;;;;;4.23;100.00;95895.50;5038316;28;24435;-80
2021/10/28 20:27:15;;;;;;;9.55;8.52;;;;;;;4.28;100.00;95894.41;5036761;28;24429;-80
2021/10/28 20:29:42;;;;;;;8.57;7.70;;;;;;;4.36;100.00;95886.44;5036288;28;24442;-80
2021/10/28 20:32:08;;;;;;;9.43;7.80;;;;;;;4.49;100.00;95880.00;5035536;28;24432;-80
2021/10/28 20:34:37;;;;;;;8.52;7.25;;;;;;;4.51;100.00;95885.03;5035292;28;24439;-80
2021/10/28 20:37:08;;;;;;;10.27;7.82;;;;;;;4.54;100.00;95885.78;5035070;28;24431;-80